Pagina principale
METAR-TAF:

METAR-TAF

Aeroporti :

Aeroporto di Düsseldorf

Düsseldorf, Germania

latitudine: 51-18N, longitudine: 006-46E, altezza: 45 m

Osservazione

Il bollettino è stato emesso 27 minuti fa, alle 17:50 UTC
Vento 12 kt da sud/sud-est
Temperature 5°C
Umidità 87%
Pressione 1006 hPa
Visibilità 10 km o più
nessuna nube inferiore a 1500 m e nessun cumulonembo

METAR: EDDL 211750Z 15012KT CAVOK 05/03 Q1006 NOSIG

Ora: 19:17 (18:17 UTC)

Previsione

Il bollettino è stato emesso 1 ora e 17 minuti fa, alle 17:00 UTC
Previsione valida dal 21 alle 18 UTC al 22 alle 24 UTC
Vento 9 kt da sud-est
Visibilità 10 km o più
nessuna nube inferiore a 1500 m e nessun cumulonembo
Probabilità 30% :
Temporaneamente
dal 22 alle 05 UTC al 22 alle 09 UTC
Nuvoloso ad un'altezza di 4000 ft, Cumulo congesto.
pioggia

TAF: EDDL 211700Z 2118/2224 14009KT CAVOK PROB30 TEMPO 2205/2209 RA BKN040TCU

Osservazioni e previsioni meteorologiche di più di 4000 aeroporti (messaggi METAR e TAF).

Le stazioni disponibili sono rappresentate dai dischi gialli e rossi sulla carta.

Puntare il mouse per vedere il nome della stazione.

Clicca sopra per visualizzare le osservazioni e previsioni meteorologiche.

Per cambiare la mappa : fare clic sui pulsanti verdi con una croce nera per ingrandire, il pulsante verde con un trattino per diminuire, o sulla freccia verde per le mappe adiacenti.


METAR-TAF: